sensor_id;sensor_type;location;lat;lon;timestamp;temperature;humidity
58153;DHT22;43967;51.634;5.566;2022-12-05T00:00:40;18.00;53.20
58153;DHT22;43967;51.634;5.566;2022-12-05T00:05:41;17.90;53.10
58153;DHT22;43967;51.634;5.566;2022-12-05T00:10:43;17.90;53.10
58153;DHT22;43967;51.634;5.566;2022-12-05T00:15:44;17.90;53.10
58153;DHT22;43967;51.634;5.566;2022-12-05T00:20:46;17.90;53.00
58153;DHT22;43967;51.634;5.566;2022-12-05T00:25:47;17.90;53.10
58153;DHT22;43967;51.634;5.566;2022-12-05T00:30:48;17.90;53.00
58153;DHT22;43967;51.634;5.566;2022-12-05T00:35:49;17.90;53.00
58153;DHT22;43967;51.634;5.566;2022-12-05T00:40:50;17.90;53.00
58153;DHT22;43967;51.634;5.566;2022-12-05T00:45:52;17.80;52.90
58153;DHT22;43967;51.634;5.566;2022-12-05T00:51:14;17.80;52.90
58153;DHT22;43967;51.634;5.566;2022-12-05T00:56:20;17.80;52.90
58153;DHT22;43967;51.634;5.566;2022-12-05T01:01:33;17.80;52.80
58153;DHT22;43967;51.634;5.566;2022-12-05T01:06:36;17.80;53.50
58153;DHT22;43967;51.634;5.566;2022-12-05T01:11:37;17.80;52.80
58153;DHT22;43967;51.634;5.566;2022-12-05T01:16:40;17.70;52.80
58153;DHT22;43967;51.634;5.566;2022-12-05T01:21:41;17.70;52.80
58153;DHT22;43967;51.634;5.566;2022-12-05T01:26:43;17.80;52.80
58153;DHT22;43967;51.634;5.566;2022-12-05T01:31:45;17.70;52.80
58153;DHT22;43967;51.634;5.566;2022-12-05T01:36:46;17.70;52.70
58153;DHT22;43967;51.634;5.566;2022-12-05T01:41:49;17.70;52.80
58153;DHT22;43967;51.634;5.566;2022-12-05T01:46:51;17.70;52.80
58153;DHT22;43967;51.634;5.566;2022-12-05T01:52:09;17.70;52.80
58153;DHT22;43967;51.634;5.566;2022-12-05T01:57:13;17.70;52.70
58153;DHT22;43967;51.634;5.566;2022-12-05T02:02:14;17.60;52.70
58153;DHT22;43967;51.634;5.566;2022-12-05T02:07:17;17.60;52.60
58153;DHT22;43967;51.634;5.566;2022-12-05T02:12:20;17.60;52.70
58153;DHT22;43967;51.634;5.566;2022-12-05T02:17:31;17.70;52.80
58153;DHT22;43967;51.634;5.566;2022-12-05T02:28:05;17.60;52.80
58153;DHT22;43967;51.634;5.566;2022-12-05T02:33:22;17.60;52.70
58153;DHT22;43967;51.634;5.566;2022-12-05T02:38:43;17.60;52.70
58153;DHT22;43967;51.634;5.566;2022-12-05T02:44:08;17.60;53.40
58153;DHT22;43967;51.634;5.566;2022-12-05T02:49:14;17.60;52.70
58153;DHT22;43967;51.634;5.566;2022-12-05T02:54:23;17.60;52.80
58153;DHT22;43967;51.634;5.566;2022-12-05T02:59:26;17.60;52.80
58153;DHT22;43967;51.634;5.566;2022-12-05T03:04:29;17.50;52.70
58153;DHT22;43967;51.634;5.566;2022-12-05T03:09:43;17.50;52.70
58153;DHT22;43967;51.634;5.566;2022-12-05T03:25:05;17.50;52.60
58153;DHT22;43967;51.634;5.566;2022-12-05T03:30:13;17.50;52.70
58153;DHT22;43967;51.634;5.566;2022-12-05T03:40:47;17.50;52.70
58153;DHT22;43967;51.634;5.566;2022-12-05T03:46:08;17.50;52.70
58153;DHT22;43967;51.634;5.566;2022-12-05T03:51:13;17.50;52.70
58153;DHT22;43967;51.634;5.566;2022-12-05T03:56:19;17.50;52.80
58153;DHT22;43967;51.634;5.566;2022-12-05T04:01:21;17.50;52.70
58153;DHT22;43967;51.634;5.566;2022-12-05T04:06:32;17.50;52.80
58153;DHT22;43967;51.634;5.566;2022-12-05T04:11:35;17.50;52.80
58153;DHT22;43967;51.634;5.566;2022-12-05T04:16:44;17.50;52.80
58153;DHT22;43967;51.634;5.566;2022-12-05T04:21:50;17.40;52.70
58153;DHT22;43967;51.634;5.566;2022-12-05T04:26:59;17.50;52.80
58153;DHT22;43967;51.634;5.566;2022-12-05T04:32:08;17.40;52.80
58153;DHT22;43967;51.634;5.566;2022-12-05T04:37:12;17.40;52.80
58153;DHT22;43967;51.634;5.566;2022-12-05T04:42:18;17.40;52.80
58153;DHT22;43967;51.634;5.566;2022-12-05T04:47:24;17.40;52.80
58153;DHT22;43967;51.634;5.566;2022-12-05T04:52:28;17.40;52.80
58153;DHT22;43967;51.634;5.566;2022-12-05T04:57:35;17.40;52.80
58153;DHT22;43967;51.634;5.566;2022-12-05T05:02:49;17.40;52.90
58153;DHT22;43967;51.634;5.566;2022-12-05T05:07:53;17.40;52.80
58153;DHT22;43967;51.634;5.566;2022-12-05T05:12:54;17.40;52.80
58153;DHT22;43967;51.634;5.566;2022-12-05T05:17:55;17.40;52.90
58153;DHT22;43967;51.634;5.566;2022-12-05T05:22:58;17.40;52.80
58153;DHT22;43967;51.634;5.566;2022-12-05T05:27:59;17.40;52.90
58153;DHT22;43967;51.634;5.566;2022-12-05T05:33:00;17.40;52.80
58153;DHT22;43967;51.634;5.566;2022-12-05T05:38:01;17.30;52.80
58153;DHT22;43967;51.634;5.566;2022-12-05T05:43:03;17.40;53.00
58153;DHT22;43967;51.634;5.566;2022-12-05T05:48:04;17.30;53.00
58153;DHT22;43967;51.634;5.566;2022-12-05T05:53:05;17.30;53.20
58153;DHT22;43967;51.634;5.566;2022-12-05T05:58:07;17.30;53.20
58153;DHT22;43967;51.634;5.566;2022-12-05T06:03:09;17.40;53.40
58153;DHT22;43967;51.634;5.566;2022-12-05T06:08:10;17.50;53.30
58153;DHT22;43967;51.634;5.566;2022-12-05T06:13:11;17.60;53.30
58153;DHT22;43967;51.634;5.566;2022-12-05T06:18:12;17.70;53.00
58153;DHT22;43967;51.634;5.566;2022-12-05T06:23:13;17.70;53.30
58153;DHT22;43967;51.634;5.566;2022-12-05T06:28:15;17.80;53.60
58153;DHT22;43967;51.634;5.566;2022-12-05T06:33:16;17.80;53.60
58153;DHT22;43967;51.634;5.566;2022-12-05T06:38:17;17.90;53.70
58153;DHT22;43967;51.634;5.566;2022-12-05T06:43:18;17.90;53.70
58153;DHT22;43967;51.634;5.566;2022-12-05T06:48:19;18.00;53.70
58153;DHT22;43967;51.634;5.566;2022-12-05T06:53:20;17.90;53.80
58153;DHT22;43967;51.634;5.566;2022-12-05T06:58:22;18.00;53.80
58153;DHT22;43967;51.634;5.566;2022-12-05T07:03:23;18.10;53.90
58153;DHT22;43967;51.634;5.566;2022-12-05T07:08:24;18.20;53.70
58153;DHT22;43967;51.634;5.566;2022-12-05T07:13:25;18.20;53.70
58153;DHT22;43967;51.634;5.566;2022-12-05T07:18:26;18.20;53.70
58153;DHT22;43967;51.634;5.566;2022-12-05T07:23:27;18.20;53.80
58153;DHT22;43967;51.634;5.566;2022-12-05T07:28:28;17.90;53.60
58153;DHT22;43967;51.634;5.566;2022-12-05T07:33:29;17.80;53.70
58153;DHT22;43967;51.634;5.566;2022-12-05T07:38:31;17.70;53.80
58153;DHT22;43967;51.634;5.566;2022-12-05T07:43:32;17.70;53.90
58153;DHT22;43967;51.634;5.566;2022-12-05T07:48:33;17.70;54.00
58153;DHT22;43967;51.634;5.566;2022-12-05T07:53:35;17.70;54.20
58153;DHT22;43967;51.634;5.566;2022-12-05T07:58:36;17.70;54.40
58153;DHT22;43967;51.634;5.566;2022-12-05T08:03:38;17.70;54.50
58153;DHT22;43967;51.634;5.566;2022-12-05T08:08:39;17.70;54.50
58153;DHT22;43967;51.634;5.566;2022-12-05T08:13:40;17.80;55.10
58153;DHT22;43967;51.634;5.566;2022-12-05T08:18:42;17.80;54.50
58153;DHT22;43967;51.634;5.566;2022-12-05T08:23:44;17.90;54.50
58153;DHT22;43967;51.634;5.566;2022-12-05T08:28:49;17.90;54.50
58153;DHT22;43967;51.634;5.566;2022-12-05T08:33:51;18.00;54.50
58153;DHT22;43967;51.634;5.566;2022-12-05T08:39:04;18.00;54.50
58153;DHT22;43967;51.634;5.566;2022-12-05T08:44:06;18.10;54.50
58153;DHT22;43967;51.634;5.566;2022-12-05T08:49:08;18.10;54.50
58153;DHT22;43967;51.634;5.566;2022-12-05T08:54:10;18.10;54.50
58153;DHT22;43967;51.634;5.566;2022-12-05T08:59:11;18.10;54.10
58153;DHT22;43967;51.634;5.566;2022-12-05T09:04:12;18.00;54.50
58153;DHT22;43967;51.634;5.566;2022-12-05T09:09:13;18.10;54.60
58153;DHT22;43967;51.634;5.566;2022-12-05T09:14:14;18.10;54.70
58153;DHT22;43967;51.634;5.566;2022-12-05T09:19:18;18.10;54.70
58153;DHT22;43967;51.634;5.566;2022-12-05T09:24:19;18.00;54.60
58153;DHT22;43967;51.634;5.566;2022-12-05T09:29:20;17.90;55.10
58153;DHT22;43967;51.634;5.566;2022-12-05T09:34:21;17.90;55.50
58153;DHT22;43967;51.634;5.566;2022-12-05T09:39:23;17.80;55.70
58153;DHT22;43967;51.634;5.566;2022-12-05T09:44:55;17.80;56.00
58153;DHT22;43967;51.634;5.566;2022-12-05T09:50:11;17.80;56.40
58153;DHT22;43967;51.634;5.566;2022-12-05T09:55:15;18.20;57.00
58153;DHT22;43967;51.634;5.566;2022-12-05T10:00:17;18.50;56.20
58153;DHT22;43967;51.634;5.566;2022-12-05T10:16:10;18.10;58.00
58153;DHT22;43967;51.634;5.566;2022-12-05T10:21:20;18.00;58.50
58153;DHT22;43967;51.634;5.566;2022-12-05T10:26:36;18.20;59.40
58153;DHT22;43967;51.634;5.566;2022-12-05T10:31:42;18.30;59.00
58153;DHT22;43967;51.634;5.566;2022-12-05T10:37:09;18.30;58.50
58153;DHT22;43967;51.634;5.566;2022-12-05T10:47:22;18.40;57.50
58153;DHT22;43967;51.634;5.566;2022-12-05T10:52:24;18.40;56.80
58153;DHT22;43967;51.634;5.566;2022-12-05T10:57:27;18.30;57.20
58153;DHT22;43967;51.634;5.566;2022-12-05T11:02:30;18.20;57.30
58153;DHT22;43967;51.634;5.566;2022-12-05T11:07:35;18.20;57.60
58153;DHT22;43967;51.634;5.566;2022-12-05T11:12:38;18.10;57.50
58153;DHT22;43967;51.634;5.566;2022-12-05T11:17:39;18.10;57.50
58153;DHT22;43967;51.634;5.566;2022-12-05T11:22:40;18.10;57.50
58153;DHT22;43967;51.634;5.566;2022-12-05T11:27:41;18.10;57.50
58153;DHT22;43967;51.634;5.566;2022-12-05T11:32:42;18.10;57.40
58153;DHT22;43967;51.634;5.566;2022-12-05T11:37:51;18.10;57.20
58153;DHT22;43967;51.634;5.566;2022-12-05T11:54:12;18.20;57.20
58153;DHT22;43967;51.634;5.566;2022-12-05T12:04:51;18.30;56.80
58153;DHT22;43967;51.634;5.566;2022-12-05T12:26:24;18.60;56.20
58153;DHT22;43967;51.634;5.566;2022-12-05T12:53:02;18.70;56.10
58153;DHT22;43967;51.634;5.566;2022-12-05T12:58:17;18.70;56.20
58153;DHT22;43967;51.634;5.566;2022-12-05T13:08:35;18.60;56.00
58153;DHT22;43967;51.634;5.566;2022-12-05T13:13:49;18.70;56.20
58153;DHT22;43967;51.634;5.566;2022-12-05T13:25:03;18.80;56.20
58153;DHT22;43967;51.634;5.566;2022-12-05T13:30:29;18.80;56.10
58153;DHT22;43967;51.634;5.566;2022-12-05T14:13:42;18.90;55.90
58153;DHT22;43967;51.634;5.566;2022-12-05T14:18:49;18.90;56.00
58153;DHT22;43967;51.634;5.566;2022-12-05T14:24:14;19.00;56.00
58153;DHT22;43967;51.634;5.566;2022-12-05T14:29:24;18.90;55.80
58153;DHT22;43967;51.634;5.566;2022-12-05T14:34:29;19.00;55.70
58153;DHT22;43967;51.634;5.566;2022-12-05T14:39:38;19.00;55.70
58153;DHT22;43967;51.634;5.566;2022-12-05T14:44:45;19.00;55.70
58153;DHT22;43967;51.634;5.566;2022-12-05T14:49:52;19.00;55.70
58153;DHT22;43967;51.634;5.566;2022-12-05T14:55:02;19.00;55.60
58153;DHT22;43967;51.634;5.566;2022-12-05T15:00:06;19.00;55.50
58153;DHT22;43967;51.634;5.566;2022-12-05T15:05:25;19.00;55.50
58153;DHT22;43967;51.634;5.566;2022-12-05T15:10:37;19.00;55.50
58153;DHT22;43967;51.634;5.566;2022-12-05T15:26:21;19.00;55.20
58153;DHT22;43967;51.634;5.566;2022-12-05T15:37:09;19.10;55.20
58153;DHT22;43967;51.634;5.566;2022-12-05T15:42:14;19.10;55.10
58153;DHT22;43967;51.634;5.566;2022-12-05T15:47:23;19.10;55.30
58153;DHT22;43967;51.634;5.566;2022-12-05T15:52:30;19.10;55.20
58153;DHT22;43967;51.634;5.566;2022-12-05T15:57:46;19.10;55.20
58153;DHT22;43967;51.634;5.566;2022-12-05T16:03:02;19.10;55.20
58153;DHT22;43967;51.634;5.566;2022-12-05T16:08:13;19.20;55.20
58153;DHT22;43967;51.634;5.566;2022-12-05T16:13:28;19.20;55.20
58153;DHT22;43967;51.634;5.566;2022-12-05T16:18:38;19.10;55.10
58153;DHT22;43967;51.634;5.566;2022-12-05T16:23:39;19.10;55.50
58153;DHT22;43967;51.634;5.566;2022-12-05T16:28:40;19.00;55.80
58153;DHT22;43967;51.634;5.566;2022-12-05T16:33:43;19.10;56.00
58153;DHT22;43967;51.634;5.566;2022-12-05T16:38:47;19.20;55.80
58153;DHT22;43967;51.634;5.566;2022-12-05T16:43:50;19.10;56.20
58153;DHT22;43967;51.634;5.566;2022-12-05T16:49:22;19.10;56.20
58153;DHT22;43967;51.634;5.566;2022-12-05T16:54:24;19.00;56.60
58153;DHT22;43967;51.634;5.566;2022-12-05T16:59:33;19.20;57.50
58153;DHT22;43967;51.634;5.566;2022-12-05T17:04:35;19.30;57.70
58153;DHT22;43967;51.634;5.566;2022-12-05T17:09:36;19.50;58.20
58153;DHT22;43967;51.634;5.566;2022-12-05T17:14:37;19.90;58.00
58153;DHT22;43967;51.634;5.566;2022-12-05T17:19:38;19.60;57.80
58153;DHT22;43967;51.634;5.566;2022-12-05T17:24:40;19.40;59.80
58153;DHT22;43967;51.634;5.566;2022-12-05T17:29:41;19.40;60.20
58153;DHT22;43967;51.634;5.566;2022-12-05T17:34:42;19.30;60.80
58153;DHT22;43967;51.634;5.566;2022-12-05T17:39:43;19.40;61.20
58153;DHT22;43967;51.634;5.566;2022-12-05T17:44:44;19.50;60.80
58153;DHT22;43967;51.634;5.566;2022-12-05T17:49:46;19.50;61.30
58153;DHT22;43967;51.634;5.566;2022-12-05T17:54:47;19.40;62.00
58153;DHT22;43967;51.634;5.566;2022-12-05T17:59:48;19.40;62.30
58153;DHT22;43967;51.634;5.566;2022-12-05T18:04:49;19.40;62.30
58153;DHT22;43967;51.634;5.566;2022-12-05T18:09:50;19.40;62.40
58153;DHT22;43967;51.634;5.566;2022-12-05T18:14:52;19.40;62.40
58153;DHT22;43967;51.634;5.566;2022-12-05T18:19:54;19.40;62.60
58153;DHT22;43967;51.634;5.566;2022-12-05T18:24:56;19.40;63.20
58153;DHT22;43967;51.634;5.566;2022-12-05T18:29:57;19.40;63.60
58153;DHT22;43967;51.634;5.566;2022-12-05T18:34:58;19.40;63.80
58153;DHT22;43967;51.634;5.566;2022-12-05T18:39:59;19.40;62.40
58153;DHT22;43967;51.634;5.566;2022-12-05T18:45:01;19.40;61.90
58153;DHT22;43967;51.634;5.566;2022-12-05T18:50:04;19.40;62.00
58153;DHT22;43967;51.634;5.566;2022-12-05T18:55:05;19.30;61.80
58153;DHT22;43967;51.634;5.566;2022-12-05T19:00:07;19.40;61.90
58153;DHT22;43967;51.634;5.566;2022-12-05T19:05:08;19.30;61.80
58153;DHT22;43967;51.634;5.566;2022-12-05T19:10:10;19.30;62.00
58153;DHT22;43967;51.634;5.566;2022-12-05T19:15:11;19.20;62.40
58153;DHT22;43967;51.634;5.566;2022-12-05T19:20:12;19.30;62.60
58153;DHT22;43967;51.634;5.566;2022-12-05T19:25:13;19.30;62.70
58153;DHT22;43967;51.634;5.566;2022-12-05T19:30:14;19.20;62.70
58153;DHT22;43967;51.634;5.566;2022-12-05T19:35:15;19.30;62.80
58153;DHT22;43967;51.634;5.566;2022-12-05T19:40:17;19.30;63.20
58153;DHT22;43967;51.634;5.566;2022-12-05T19:45:18;19.20;62.70
58153;DHT22;43967;51.634;5.566;2022-12-05T21:19:41;19.20;61.60
58153;DHT22;43967;51.634;5.566;2022-12-05T21:37:17;19.70;59.90
58153;DHT22;43967;51.634;5.566;2022-12-05T21:42:18;19.80;59.60
58153;DHT22;43967;51.634;5.566;2022-12-05T21:53:40;19.90;59.10
58153;DHT22;43967;51.634;5.566;2022-12-05T21:58:49;19.90;58.90
58153;DHT22;43967;51.634;5.566;2022-12-05T22:27:43;19.80;58.20
58153;DHT22;43967;51.634;5.566;2022-12-05T22:38:49;19.70;58.00
58153;DHT22;43967;51.634;5.566;2022-12-05T22:44:03;19.70;57.90
58153;DHT22;43967;51.634;5.566;2022-12-05T22:49:35;19.70;57.70
58153;DHT22;43967;51.634;5.566;2022-12-05T23:00:52;19.60;57.40
58153;DHT22;43967;51.634;5.566;2022-12-05T23:06:26;19.60;57.50
58153;DHT22;43967;51.634;5.566;2022-12-05T23:17:11;19.50;57.10
58153;DHT22;43967;51.634;5.566;2022-12-05T23:22:12;19.50;57.10
58153;DHT22;43967;51.634;5.566;2022-12-05T23:33:34;19.50;56.90
58153;DHT22;43967;51.634;5.566;2022-12-05T23:38:37;19.40;56.90
58153;DHT22;43967;51.634;5.566;2022-12-05T23:49:48;19.40;56.70
58153;DHT22;43967;51.634;5.566;2022-12-05T23:54:54;19.40;56.50
58153;DHT22;43967;51.634;5.566;2022-12-05T23:59:56;19.30;56.50
